Time,TemperatureF,DewpointF,PressureIn,WindDirection,WindDirectionDegrees,WindSpeedMPH,WindSpeedGustMPH,Humidity,HourlyPrecipIn,Conditions,Clouds,dailyrainin,SoftwareType,DateUTC
2013-06-17 00:02:00,67.0,57.0,29.78,North,-999,-999.0,-999.0,70,0.00,,,0.02,,2013-06-17 04:02:00,
2013-06-17 00:12:00,68.0,57.0,29.79,North,-999,-999.0,-999.0,68,0.00,,,0.02,,2013-06-17 04:12:00,
2013-06-17 00:22:00,67.0,56.0,29.79,North,-999,-999.0,-999.0,68,0.00,,,0.02,,2013-06-17 04:22:00,
2013-06-17 00:34:00,67.0,56.0,29.79,North,-999,-999.0,-999.0,68,0.00,,,0.02,,2013-06-17 04:34:00,
2013-06-17 00:43:00,67.0,56.0,29.80,North,-999,-999.0,-999.0,69,0.00,,,0.02,,2013-06-17 04:43:00,
2013-06-17 00:53:00,67.0,56.0,29.80,North,-999,-999.0,-999.0,69,0.00,,,0.02,,2013-06-17 04:53:00,
2013-06-17 01:02:00,67.0,56.0,29.80,North,-999,-999.0,-999.0,69,0.00,,,0.02,,2013-06-17 05:02:00,
2013-06-17 01:12:00,67.0,56.0,29.80,North,-999,-999.0,-999.0,69,0.00,,,0.02,,2013-06-17 05:12:00,
2013-06-17 01:22:00,66.0,56.0,29.80,North,-999,-999.0,-999.0,70,0.00,,,0.02,,2013-06-17 05:22:00,
2013-06-17 01:33:00,66.0,57.0,29.80,North,-999,-999.0,-999.0,72,0.00,,,0.02,,2013-06-17 05:33:00,
2013-06-17 01:44:00,65.0,56.0,29.80,North,-999,-999.0,-999.0,72,0.00,,,0.02,,2013-06-17 05:44:00,
2013-06-17 01:53:00,65.0,56.0,29.80,North,-999,-999.0,-999.0,72,0.00,,,0.02,,2013-06-17 05:53:00,
2013-06-17 02:02:00,65.0,56.0,29.80,North,-999,-999.0,-999.0,73,0.00,,,0.02,,2013-06-17 06:02:00,
2013-06-17 02:12:00,65.0,56.0,29.80,North,-999,-999.0,-999.0,74,0.00,,,0.02,,2013-06-17 06:12:00,
2013-06-17 02:22:00,65.0,56.0,29.80,North,-999,-999.0,-999.0,74,0.00,,,0.02,,2013-06-17 06:22:00,
2013-06-17 02:33:00,64.0,56.0,29.80,North,-999,-999.0,-999.0,75,0.00,,,0.02,,2013-06-17 06:33:00,
2013-06-17 02:43:00,63.0,56.0,29.80,North,-999,-999.0,-999.0,77,0.00,,,0.02,,2013-06-17 06:43:00,
2013-06-17 02:53:00,63.0,56.0,29.80,North,-999,-999.0,-999.0,77,0.00,,,0.02,,2013-06-17 06:53:00,
2013-06-17 03:02:00,62.0,55.0,29.81,North,-999,-999.0,-999.0,78,0.00,,,0.02,,2013-06-17 07:02:00,
2013-06-17 03:12:00,62.0,55.0,29.81,North,-999,-999.0,-999.0,79,0.00,,,0.02,,2013-06-17 07:12:00,
2013-06-17 03:22:00,62.0,55.0,29.81,North,-999,-999.0,-999.0,79,0.00,,,0.02,,2013-06-17 07:22:00,
2013-06-17 03:33:00,61.0,55.0,29.81,North,-999,-999.0,-999.0,81,0.00,,,0.02,,2013-06-17 07:33:00,
2013-06-17 03:43:00,60.0,54.0,29.82,North,-999,-999.0,-999.0,81,0.00,,,0.02,,2013-06-17 07:43:00,
2013-06-17 03:53:00,60.0,54.0,29.82,North,-999,-999.0,-999.0,81,0.00,,,0.02,,2013-06-17 07:53:00,
2013-06-17 04:02:00,60.0,55.0,29.83,North,-999,-999.0,-999.0,83,0.00,,,0.02,,2013-06-17 08:02:00,
2013-06-17 04:12:00,60.0,55.0,29.82,North,-999,-999.0,-999.0,83,0.00,,,0.02,,2013-06-17 08:12:00,
2013-06-17 04:22:00,60.0,55.0,29.82,North,-999,-999.0,-999.0,83,0.00,,,0.02,,2013-06-17 08:22:00,
2013-06-17 04:34:00,60.0,55.0,29.82,North,-999,-999.0,-999.0,84,0.00,,,0.02,,2013-06-17 08:34:00,
2013-06-17 04:43:00,59.0,54.0,29.83,North,-999,-999.0,-999.0,84,0.00,,,0.02,,2013-06-17 08:43:00,
2013-06-17 04:53:00,59.0,54.0,29.83,North,-999,-999.0,-999.0,85,0.00,,,0.02,,2013-06-17 08:53:00,
2013-06-17 05:02:00,59.0,54.0,29.83,North,-999,-999.0,-999.0,85,0.00,,,0.02,,2013-06-17 09:02:00,
2013-06-17 05:12:00,59.0,54.0,29.83,North,-999,-999.0,-999.0,85,0.00,,,0.02,,2013-06-17 09:12:00,
2013-06-17 05:22:00,59.0,55.0,29.83,North,-999,-999.0,-999.0,87,0.00,,,0.02,,2013-06-17 09:22:00,
2013-06-17 05:34:00,58.0,55.0,29.83,North,-999,-999.0,-999.0,89,0.00,,,0.02,,2013-06-17 09:34:00,
2013-06-17 05:44:00,58.0,55.0,29.83,North,-999,-999.0,-999.0,89,0.00,,,0.02,,2013-06-17 09:44:00,
2013-06-17 05:53:00,58.0,55.0,29.84,North,-999,-999.0,-999.0,90,0.00,,,0.02,,2013-06-17 09:53:00,
2013-06-17 06:02:00,58.0,55.0,29.84,North,-999,-999.0,-999.0,91,0.00,,,0.02,,2013-06-17 10:02:00,
2013-06-17 06:12:00,58.0,55.0,29.84,North,-999,-999.0,-999.0,91,0.00,,,0.02,,2013-06-17 10:12:00,
2013-06-17 06:22:00,58.0,56.0,29.85,North,-999,-999.0,-999.0,92,0.00,,,0.02,,2013-06-17 10:22:00,
2013-06-17 06:33:00,59.0,57.0,29.85,North,-999,-999.0,-999.0,93,0.00,,,0.02,,2013-06-17 10:33:00,
2013-06-17 06:43:00,59.0,57.0,29.85,North,-999,-999.0,-999.0,93,0.00,,,0.02,,2013-06-17 10:43:00,
2013-06-17 06:54:00,59.0,57.0,29.85,North,-999,-999.0,-999.0,93,0.00,,,0.02,,2013-06-17 10:54:00,
2013-06-17 07:02:00,59.0,57.0,29.85,North,-999,-999.0,-999.0,94,0.00,,,0.02,,2013-06-17 11:02:00,
2013-06-17 07:12:00,60.0,58.0,29.85,North,-999,-999.0,-999.0,94,0.00,,,0.02,,2013-06-17 11:12:00,
2013-06-17 07:23:00,60.0,58.0,29.85,North,-999,-999.0,-999.0,94,0.00,,,0.02,,2013-06-17 11:23:00,
2013-06-17 07:33:00,61.0,60.0,29.86,North,-999,-999.0,-999.0,95,0.00,,,0.02,,2013-06-17 11:33:00,
2013-06-17 07:43:00,61.0,60.0,29.86,North,-999,-999.0,-999.0,95,0.00,,,0.02,,2013-06-17 11:43:00,
2013-06-17 07:53:00,63.0,62.0,29.86,North,-999,-999.0,-999.0,95,0.00,,,0.02,,2013-06-17 11:53:00,
2013-06-17 08:02:00,65.0,63.0,29.86,North,-999,-999.0,-999.0,94,0.00,,,0.02,,2013-06-17 12:02:00,
2013-06-17 08:12:00,65.0,63.0,29.86,North,-999,-999.0,-999.0,94,0.00,,,0.02,,2013-06-17 12:12:00,
2013-06-17 08:23:00,66.0,63.0,29.86,North,-999,-999.0,-999.0,90,0.00,,,0.02,,2013-06-17 12:23:00,
2013-06-17 08:33:00,66.0,63.0,29.86,North,-999,-999.0,-999.0,90,0.00,,,0.02,,2013-06-17 12:33:00,
2013-06-17 08:43:00,67.0,64.0,29.87,North,-999,-999.0,-999.0,89,0.00,,,0.02,,2013-06-17 12:43:00,
2013-06-17 08:53:00,68.0,63.0,29.86,North,-999,-999.0,-999.0,85,0.00,,,0.02,,2013-06-17 12:53:00,
2013-06-17 09:02:00,68.0,63.0,29.86,North,-999,-999.0,-999.0,85,0.00,,,0.02,,2013-06-17 13:02:00,
2013-06-17 09:12:00,69.0,63.0,29.86,North,-999,-999.0,-999.0,82,0.00,,,0.02,,2013-06-17 13:12:00,
2013-06-17 09:22:00,70.0,62.0,29.86,North,-999,-999.0,-999.0,77,0.00,,,0.02,,2013-06-17 13:22:00,
2013-06-17 09:32:00,73.0,63.0,29.86,North,-999,-999.0,-999.0,70,0.00,,,0.02,,2013-06-17 13:32:00,
2013-06-17 09:43:00,73.0,63.0,29.86,North,-999,-999.0,-999.0,70,0.00,,,0.02,,2013-06-17 13:43:00,
2013-06-17 09:53:00,74.0,63.0,29.86,North,-999,-999.0,-999.0,69,0.00,,,0.02,,2013-06-17 13:53:00,
2013-06-17 10:02:00,75.0,62.0,29.85,North,-999,-999.0,-999.0,64,0.00,,,0.02,,2013-06-17 14:02:00,
2013-06-17 10:12:00,75.0,62.0,29.85,North,-999,-999.0,-999.0,64,0.00,,,0.02,,2013-06-17 14:12:00,
2013-06-17 10:22:00,76.0,62.0,29.85,North,-999,-999.0,-999.0,61,0.00,,,0.02,,2013-06-17 14:22:00,
2013-06-17 10:34:00,76.0,62.0,29.85,North,-999,-999.0,-999.0,61,0.00,,,0.02,,2013-06-17 14:34:00,
2013-06-17 10:43:00,77.0,62.0,29.85,North,-999,-999.0,-999.0,60,0.00,,,0.02,,2013-06-17 14:43:00,
2013-06-17 10:54:00,77.0,60.0,29.85,North,-999,-999.0,-999.0,56,0.00,,,0.02,,2013-06-17 14:54:00,
2013-06-17 11:02:00,77.0,60.0,29.85,North,-999,-999.0,-999.0,56,0.00,,,0.02,,2013-06-17 15:02:00,
2013-06-17 11:12:00,77.0,60.0,29.85,North,-999,-999.0,-999.0,55,0.00,,,0.02,,2013-06-17 15:12:00,
2013-06-17 11:22:00,78.0,61.0,29.85,North,-999,-999.0,-999.0,56,0.00,,,0.02,,2013-06-17 15:22:00,
2013-06-17 11:33:00,78.0,61.0,29.85,North,-999,-999.0,-999.0,56,0.00,,,0.02,,2013-06-17 15:33:00,
2013-06-17 11:43:00,78.0,59.0,29.84,North,-999,-999.0,-999.0,53,0.00,,,0.02,,2013-06-17 15:43:00,
2013-06-17 11:53:00,79.0,59.0,29.84,North,-999,-999.0,-999.0,50,0.00,,,0.02,,2013-06-17 15:53:00,
2013-06-17 12:02:00,79.0,59.0,29.84,North,-999,-999.0,-999.0,50,0.00,,,0.02,,2013-06-17 16:02:00,
2013-06-17 12:12:00,79.0,56.0,29.83,North,-999,-999.0,-999.0,46,0.00,,,0.02,,2013-06-17 16:12:00,
2013-06-17 12:22:00,80.0,60.0,29.84,North,-999,-999.0,-999.0,51,0.00,,,0.02,,2013-06-17 16:22:00,
2013-06-17 12:33:00,80.0,60.0,29.84,North,-999,-999.0,-999.0,51,0.00,,,0.02,,2013-06-17 16:33:00,
2013-06-17 12:43:00,80.0,59.0,29.83,North,-999,-999.0,-999.0,48,0.00,,,0.02,,2013-06-17 16:43:00,
2013-06-17 12:54:00,81.0,59.0,29.83,North,-999,-999.0,-999.0,47,0.00,,,0.02,,2013-06-17 16:54:00,
2013-06-17 13:02:00,81.0,59.0,29.83,North,-999,-999.0,-999.0,47,0.00,,,0.02,,2013-06-17 17:02:00,
2013-06-17 13:12:00,81.0,57.0,29.83,North,-999,-999.0,-999.0,44,0.00,,,0.02,,2013-06-17 17:12:00,
2013-06-17 13:22:00,82.0,57.0,29.83,North,-999,-999.0,-999.0,43,0.00,,,0.02,,2013-06-17 17:22:00,
2013-06-17 13:33:00,82.0,58.0,29.83,North,-999,-999.0,-999.0,44,0.00,,,0.02,,2013-06-17 17:33:00,
2013-06-17 13:43:00,82.0,58.0,29.83,North,-999,-999.0,-999.0,44,0.00,,,0.02,,2013-06-17 17:43:00,
2013-06-17 13:52:00,83.0,58.0,29.83,North,-999,-999.0,-999.0,43,0.00,,,0.02,,2013-06-17 17:52:00,
2013-06-17 14:02:00,83.0,58.0,29.83,North,-999,-999.0,-999.0,43,0.00,,,0.02,,2013-06-17 18:02:00,
2013-06-17 14:12:00,83.0,57.0,29.83,North,-999,-999.0,-999.0,41,0.00,,,0.02,,2013-06-17 18:12:00,
2013-06-17 14:23:00,83.0,58.0,29.81,North,-999,-999.0,-999.0,43,0.00,,,0.02,,2013-06-17 18:23:00,
2013-06-17 14:33:00,84.0,58.0,29.80,North,-999,-999.0,-999.0,41,0.00,,,0.02,,2013-06-17 18:33:00,
2013-06-17 14:43:00,84.0,58.0,29.80,North,-999,-999.0,-999.0,41,0.00,,,0.02,,2013-06-17 18:43:00,
2013-06-17 14:53:00,84.0,56.0,29.80,North,-999,-999.0,-999.0,39,0.00,,,0.02,,2013-06-17 18:53:00,
2013-06-17 15:02:00,84.0,57.0,29.80,North,-999,-999.0,-999.0,40,0.00,,,0.02,,2013-06-17 19:02:00,
2013-06-17 15:12:00,84.0,57.0,29.80,North,-999,-999.0,-999.0,40,0.00,,,0.02,,2013-06-17 19:12:00,
2013-06-17 15:22:00,84.0,56.0,29.80,North,-999,-999.0,-999.0,39,0.00,,,0.00,,2013-06-17 19:22:00,
2013-06-17 15:33:00,84.0,56.0,29.80,North,-999,-999.0,-999.0,39,0.00,,,0.00,,2013-06-17 19:33:00,
2013-06-17 15:43:00,83.0,58.0,29.80,North,-999,-999.0,-999.0,42,0.00,,,0.00,,2013-06-17 19:43:00,
2013-06-17 15:54:00,82.0,57.0,29.80,North,-999,-999.0,-999.0,43,0.00,,,0.00,,2013-06-17 19:54:00,
2013-06-17 16:02:00,82.0,57.0,29.80,North,-999,-999.0,-999.0,43,0.00,,,0.00,,2013-06-17 20:02:00,
2013-06-17 16:11:00,81.0,59.0,29.79,North,-999,-999.0,-999.0,47,0.00,,,0.00,,2013-06-17 20:11:00,
2013-06-17 16:22:00,82.0,57.0,29.79,SSW,213,5.0,16.0,42,0.00,,,0.00,,2013-06-17 20:22:00,
2013-06-17 16:34:00,81.0,56.0,29.79,North,-999,-999.0,-999.0,43,0.00,,,0.00,,2013-06-17 20:34:00,
2013-06-17 16:43:00,81.0,56.0,29.79,North,-999,-999.0,-999.0,43,0.00,,,0.00,,2013-06-17 20:43:00,
2013-06-17 16:52:00,82.0,58.0,29.78,North,-999,-999.0,-999.0,44,0.00,,,0.00,,2013-06-17 20:52:00,
2013-06-17 17:02:00,82.0,58.0,29.78,North,-999,-999.0,-999.0,44,0.00,,,0.00,,2013-06-17 21:02:00,
2013-06-17 17:12:00,82.0,59.0,29.78,North,-999,-999.0,-999.0,45,0.00,,,0.00,,2013-06-17 21:12:00,
2013-06-17 17:22:00,82.0,58.0,29.79,North,-999,-999.0,-999.0,44,0.00,,,0.00,,2013-06-17 21:22:00,
2013-06-17 17:33:00,82.0,58.0,29.79,North,-999,-999.0,-999.0,44,0.00,,,0.00,,2013-06-17 21:33:00,
2013-06-17 17:43:00,79.0,58.0,29.83,North,-999,-999.0,-999.0,49,0.00,,,0.00,,2013-06-17 21:43:00,
2013-06-17 17:52:00,79.0,58.0,29.83,North,-999,-999.0,-999.0,49,0.00,,,0.00,,2013-06-17 21:52:00,
2013-06-17 18:01:00,67.0,61.0,29.86,WNW,284,0.0,0.0,81,0.00,,,0.00,,2013-06-17 22:01:00,
2013-06-17 18:12:00,67.0,61.0,29.86,WNW,284,0.0,0.0,81,0.00,,,0.00,,2013-06-17 22:12:00,
2013-06-17 18:22:00,65.0,60.0,29.85,North,-999,-999.0,-999.0,85,0.00,,,0.00,,2013-06-17 22:22:00,
2013-06-17 18:34:00,64.0,60.0,29.85,North,-999,-999.0,-999.0,88,0.00,,,0.00,,2013-06-17 22:34:00,
2013-06-17 18:43:00,64.0,60.0,29.85,North,-999,-999.0,-999.0,88,0.00,,,0.00,,2013-06-17 22:43:00,
2013-06-17 18:54:00,63.0,60.0,29.86,North,-999,-999.0,-999.0,89,0.00,,,0.00,,2013-06-17 22:54:00,
2013-06-17 19:02:00,63.0,60.0,29.88,North,-999,-999.0,-999.0,90,0.00,,,0.00,,2013-06-17 23:02:00,
2013-06-17 19:11:00,63.0,60.0,29.88,North,-999,-999.0,-999.0,90,0.00,,,0.00,,2013-06-17 23:11:00,
2013-06-17 19:22:00,63.0,60.0,29.89,North,-999,-999.0,-999.0,91,0.00,,,0.00,,2013-06-17 23:22:00,
2013-06-17 19:33:00,62.0,60.0,29.87,North,-999,-999.0,-999.0,92,0.00,,,0.00,,2013-06-17 23:33:00,
2013-06-17 19:43:00,62.0,60.0,29.87,North,-999,-999.0,-999.0,92,0.00,,,0.00,,2013-06-17 23:43:00,
2013-06-17 19:53:00,62.0,60.0,29.87,North,-999,-999.0,-999.0,92,0.00,,,0.00,,2013-06-17 23:53:00,
2013-06-17 20:01:00,63.0,61.0,29.88,North,-999,-999.0,-999.0,92,0.00,,,0.00,,2013-06-18 00:01:00,
2013-06-17 20:12:00,63.0,61.0,29.88,North,-999,-999.0,-999.0,92,0.00,,,0.00,,2013-06-18 00:12:00,
2013-06-17 20:22:00,63.0,61.0,29.89,North,-999,-999.0,-999.0,93,0.00,,,0.00,,2013-06-18 00:22:00,
2013-06-17 20:33:00,63.0,61.0,29.88,North,-999,-999.0,-999.0,93,0.00,,,0.00,,2013-06-18 00:33:00,
2013-06-17 20:43:00,63.0,61.0,29.88,North,-999,-999.0,-999.0,93,0.00,,,0.00,,2013-06-18 00:43:00,
2013-06-17 20:52:00,62.0,60.0,29.89,North,-999,-999.0,-999.0,93,0.00,,,0.00,,2013-06-18 00:52:00,
2013-06-17 21:01:00,62.0,60.0,29.89,North,-999,-999.0,-999.0,93,0.00,,,0.00,,2013-06-18 01:01:00,
2013-06-17 21:12:00,62.0,60.0,29.89,North,-999,-999.0,-999.0,93,0.00,,,0.00,,2013-06-18 01:12:00,
2013-06-17 21:23:00,61.0,59.0,29.90,North,-999,-999.0,-999.0,94,0.00,,,0.00,,2013-06-18 01:23:00,
2013-06-17 21:34:00,61.0,59.0,29.90,North,-999,-999.0,-999.0,94,0.00,,,0.00,,2013-06-18 01:34:00,
2013-06-17 21:44:00,61.0,59.0,29.91,North,-999,-999.0,-999.0,94,0.00,,,0.00,,2013-06-18 01:44:00,
2013-06-17 21:53:00,61.0,59.0,29.91,North,-999,-999.0,-999.0,94,0.00,,,0.00,,2013-06-18 01:53:00,
2013-06-17 22:02:00,61.0,59.0,29.91,North,-999,-999.0,-999.0,94,0.00,,,0.00,,2013-06-18 02:02:00,
2013-06-17 22:12:00,61.0,59.0,29.91,North,-999,-999.0,-999.0,94,0.00,,,0.00,,2013-06-18 02:12:00,
2013-06-17 22:22:00,60.0,58.0,29.90,North,-999,-999.0,-999.0,94,0.00,,,0.00,,2013-06-18 02:22:00,
2013-06-17 22:34:00,60.0,58.0,29.90,North,-999,-999.0,-999.0,94,0.00,,,0.00,,2013-06-18 02:34:00,
2013-06-17 22:43:00,60.0,59.0,29.90,North,-999,-999.0,-999.0,95,0.00,,,0.00,,2013-06-18 02:43:00,
2013-06-17 22:53:00,60.0,59.0,29.90,North,-999,-999.0,-999.0,95,0.00,,,0.00,,2013-06-18 02:53:00,
2013-06-17 23:02:00,60.0,59.0,29.90,North,-999,-999.0,-999.0,95,0.00,,,0.00,,2013-06-18 03:02:00,
2013-06-17 23:12:00,60.0,59.0,29.90,North,-999,-999.0,-999.0,95,0.00,,,0.00,,2013-06-18 03:12:00,
2013-06-17 23:23:00,60.0,59.0,29.90,North,-999,-999.0,-999.0,95,0.00,,,0.00,,2013-06-18 03:23:00,
2013-06-17 23:34:00,60.0,59.0,29.90,North,-999,-999.0,-999.0,95,0.00,,,0.00,,2013-06-18 03:34:00,
2013-06-17 23:43:00,59.0,58.0,29.90,North,-999,-999.0,-999.0,95,0.00,,,0.00,,2013-06-18 03:43:00,
2013-06-17 23:53:00,59.0,58.0,29.91,North,-999,-999.0,-999.0,95,0.00,,,0.00,,2013-06-18 03:53:00,